createdAt,value
2023-01-11T00:00:49.581Z,100170.75
2023-01-11T00:03:17.218Z,100168.94
2023-01-11T00:05:44.097Z,100172.78
2023-01-11T00:08:10.970Z,100169.97
2023-01-11T00:10:37.552Z,100158.47
2023-01-11T00:13:04.535Z,100176.50
2023-01-11T00:15:30.978Z,100152.94
2023-01-11T00:17:57.651Z,100154.19
2023-01-11T00:20:24.399Z,100172.44
2023-01-11T00:22:50.761Z,100179.19
2023-01-11T00:25:17.146Z,100170.09
2023-01-11T00:27:43.541Z,100160.81
2023-01-11T00:30:10.495Z,100164.38
2023-01-11T00:32:36.864Z,100163.72
2023-01-11T00:35:03.546Z,100150.38
2023-01-11T00:37:29.960Z,100136.50
2023-01-11T00:39:56.359Z,100136.03
2023-01-11T00:42:41.288Z,100139.41
2023-01-11T00:45:26.235Z,100154.44
2023-01-11T00:48:00.112Z,100142.56
2023-01-11T00:50:29.147Z,100138.84
2023-01-11T00:52:55.640Z,100142.22
2023-01-11T00:55:22.018Z,100131.91
2023-01-11T00:57:48.619Z,100132.13
2023-01-11T01:00:15.324Z,100137.63
2023-01-11T01:02:41.857Z,100136.38
2023-01-11T01:05:08.542Z,100136.16
2023-01-11T01:07:34.926Z,100129.34
2023-01-11T01:10:01.327Z,100127.31
2023-01-11T01:12:46.287Z,100145.22
2023-01-11T01:15:12.642Z,100129.75
2023-01-11T01:17:38.999Z,100126.63
2023-01-11T01:20:05.998Z,100113.16
2023-01-11T01:22:32.423Z,100127.09
2023-01-11T01:24:58.788Z,100127.19
2023-01-11T01:27:25.648Z,100122.16
2023-01-11T01:29:52.014Z,100122.25
2023-01-11T01:32:18.370Z,100107.69
2023-01-11T01:34:44.743Z,100109.03
2023-01-11T01:37:11.447Z,100097.81
2023-01-11T01:39:37.846Z,100108.38
2023-01-11T01:42:05.854Z,100104.53
2023-01-11T01:44:56.607Z,100105.44
2023-01-11T01:47:27.868Z,100100.19
2023-01-11T01:49:54.320Z,100094.34
2023-01-11T01:52:20.810Z,100089.63
2023-01-11T01:54:48.277Z,100085.72
2023-01-11T01:57:20.480Z,100083.81
2023-01-11T01:59:51.498Z,100080.34
2023-01-11T02:02:19.314Z,100081.34
2023-01-11T02:04:46.444Z,100083.50
2023-01-11T02:07:21.560Z,100095.81
2023-01-11T02:10:08.432Z,100076.19
2023-01-11T02:12:57.146Z,100084.00
2023-01-11T02:15:24.163Z,100073.22
2023-01-11T02:17:50.887Z,100076.38
2023-01-11T02:20:45.202Z,100072.91
2023-01-11T02:23:48.746Z,100070.94
2023-01-11T02:26:32.689Z,100066.44
2023-01-11T02:29:14.014Z,100062.88
2023-01-11T02:31:45.040Z,100050.38
2023-01-11T02:34:34.678Z,100059.91
2023-01-11T02:37:22.275Z,100051.38
2023-01-11T02:39:54.623Z,100056.53
2023-01-11T02:42:47.333Z,100054.75
2023-01-11T02:45:25.885Z,100045.19
2023-01-11T02:48:14.048Z,100056.22
2023-01-11T02:50:52.053Z,100046.25
2023-01-11T02:53:24.442Z,100049.31
2023-01-11T02:55:54.749Z,100063.91
2023-01-11T02:58:23.312Z,100041.97
2023-01-11T03:00:50.344Z,100053.00
2023-01-11T03:03:19.886Z,100043.56
2023-01-11T03:05:53.906Z,100041.19
2023-01-11T03:08:28.131Z,100042.41
2023-01-11T03:11:08.569Z,100040.81
2023-01-11T03:13:41.729Z,100045.69
2023-01-11T03:16:21.674Z,100041.53
2023-01-11T03:19:06.354Z,100035.66
2023-01-11T03:22:07.215Z,100030.19
2023-01-11T03:24:40.921Z,100028.88
2023-01-11T03:27:07.235Z,100025.06
2023-01-11T03:29:48.014Z,100022.72
2023-01-11T03:32:48.980Z,100021.59
2023-01-11T03:35:30.516Z,100017.56
2023-01-11T03:38:06.051Z,100022.19
2023-01-11T03:40:46.510Z,100028.78
2023-01-11T03:43:14.272Z,100029.03
2023-01-11T03:45:50.280Z,100035.56
2023-01-11T03:48:26.582Z,100029.94
2023-01-11T03:50:54.501Z,100035.47
2023-01-11T03:53:22.453Z,100037.38
2023-01-11T03:55:54.598Z,100047.00
2023-01-11T03:58:20.896Z,100040.53
2023-01-11T04:00:48.474Z,100050.63
2023-01-11T04:03:14.940Z,100039.38
2023-01-11T04:05:43.878Z,100046.22
2023-01-11T04:08:11.418Z,100062.47
2023-01-11T04:10:38.115Z,100050.75
2023-01-11T04:13:04.625Z,100044.41
2023-01-11T04:15:32.604Z,100043.00
2023-01-11T04:18:04.782Z,100042.22
2023-01-11T04:20:32.185Z,100039.38
2023-01-11T04:22:58.575Z,100041.41
2023-01-11T04:25:24.990Z,100033.34
2023-01-11T04:27:51.362Z,100035.78
2023-01-11T04:30:17.845Z,100042.63
2023-01-11T04:32:44.254Z,100046.66
2023-01-11T04:35:10.695Z,100045.22
2023-01-11T04:37:37.070Z,100039.28
2023-01-11T04:40:03.776Z,100040.06
2023-01-11T04:42:30.217Z,100033.06
2023-01-11T04:44:56.577Z,100024.44
2023-01-11T04:47:24.012Z,100029.59
2023-01-11T04:49:50.773Z,100023.13
2023-01-11T04:52:18.844Z,100029.81
2023-01-11T04:54:45.776Z,100030.59
2023-01-11T04:57:13.830Z,100034.19
2023-01-11T04:59:40.343Z,100027.03
2023-01-11T05:02:06.780Z,100018.47
2023-01-11T05:04:33.485Z,100025.63
2023-01-11T05:07:00.125Z,100022.28
2023-01-11T05:09:26.568Z,100022.19
2023-01-11T05:11:52.963Z,100021.41
2023-01-11T05:14:19.400Z,100027.66
2023-01-11T05:16:45.915Z,100028.56
2023-01-11T05:19:12.567Z,100024.06
2023-01-11T05:21:40.488Z,100031.25
2023-01-11T05:24:09.267Z,100026.28
2023-01-11T05:26:37.529Z,100028.75
2023-01-11T05:29:07.241Z,100013.19
2023-01-11T05:31:34.692Z,100028.88
2023-01-11T05:34:01.329Z,100030.88
2023-01-11T05:36:28.041Z,100027.31
2023-01-11T05:38:56.028Z,100025.59
2023-01-11T05:41:24.412Z,100029.97
2023-01-11T05:44:10.091Z,100024.72
2023-01-11T05:46:38.078Z,100023.56
2023-01-11T05:49:05.197Z,100030.50
2023-01-11T05:51:32.652Z,100028.03
2023-01-11T05:54:03.668Z,100020.41
2023-01-11T05:56:30.640Z,100026.66
2023-01-11T05:58:58.249Z,100030.94
2023-01-11T06:01:25.075Z,100036.09
2023-01-11T06:03:51.576Z,100033.72
2023-01-11T06:06:19.005Z,100029.66
2023-01-11T06:08:45.435Z,100025.50
2023-01-11T06:11:11.887Z,100023.94
2023-01-11T06:13:38.362Z,100021.44
2023-01-11T06:16:07.908Z,100023.81
2023-01-11T06:18:40.646Z,100028.19
2023-01-11T06:21:07.704Z,100027.28
2023-01-11T06:23:35.671Z,100031.88
2023-01-11T06:26:07.391Z,100035.56
2023-01-11T06:28:33.765Z,100036.25
2023-01-11T06:31:00.436Z,100032.66
2023-01-11T06:33:28.560Z,100030.41
2023-01-11T06:35:55.883Z,100032.97
2023-01-11T06:38:23.581Z,100031.97
2023-01-11T06:41:00.812Z,100023.63
2023-01-11T06:43:28.282Z,100020.06
2023-01-11T06:45:55.097Z,100021.50
2023-01-11T06:48:22.280Z,100021.16
2023-01-11T06:50:56.296Z,100030.81
2023-01-11T06:53:24.956Z,100020.47
2023-01-11T06:55:53.851Z,100024.28
2023-01-11T06:58:22.290Z,100032.22
2023-01-11T07:00:49.261Z,100035.03
2023-01-11T07:03:15.622Z,100035.03
2023-01-11T07:05:43.796Z,100036.69
2023-01-11T07:08:10.515Z,100046.03
2023-01-11T07:10:37.002Z,100029.44
2023-01-11T07:13:03.802Z,100047.50
2023-01-11T07:15:30.295Z,100054.78
2023-01-11T07:17:59.339Z,100048.94
2023-01-11T07:20:26.556Z,100060.19
2023-01-11T07:22:56.905Z,100061.06
2023-01-11T07:25:23.372Z,100065.63
2023-01-11T07:27:49.721Z,100068.22
2023-01-11T07:30:16.379Z,100076.94
2023-01-11T07:32:42.724Z,100078.94
2023-01-11T07:35:09.449Z,100083.03
2023-01-11T07:37:37.530Z,100095.56
2023-01-11T07:40:04.566Z,100095.78
2023-01-11T07:42:49.627Z,100100.16
2023-01-11T07:45:16.160Z,100112.81
2023-01-11T07:47:42.548Z,100115.41
2023-01-11T07:50:09.577Z,100118.00
2023-01-11T07:52:35.965Z,100105.34
2023-01-11T07:55:02.822Z,100124.44
2023-01-11T07:57:30.135Z,100125.34
2023-01-11T07:59:56.510Z,100131.22
2023-01-11T08:02:22.963Z,100126.72
2023-01-11T08:04:49.434Z,100140.06
2023-01-11T08:07:15.820Z,100133.41
2023-01-11T08:09:42.256Z,100134.41
2023-01-11T08:12:31.843Z,100121.50
2023-01-11T08:14:58.404Z,100117.19
2023-01-11T08:17:24.895Z,100117.91
2023-01-11T08:19:51.361Z,100121.28
2023-01-11T08:22:18.108Z,100125.47
2023-01-11T08:24:44.548Z,100123.50
2023-01-11T08:27:11.021Z,100119.63
2023-01-11T08:29:37.914Z,100137.13
2023-01-11T08:32:04.427Z,100138.81
2023-01-11T08:34:32.048Z,100136.22
2023-01-11T08:37:01.935Z,100133.53
2023-01-11T08:39:30.867Z,100129.97
2023-01-11T08:42:00.771Z,100129.47
2023-01-11T08:44:34.015Z,100132.84
2023-01-11T08:47:01.316Z,100145.88
2023-01-11T08:49:27.740Z,100135.34
2023-01-11T08:51:54.136Z,100127.38
2023-01-11T08:54:20.571Z,100132.47
2023-01-11T08:56:47.041Z,100143.69
2023-01-11T08:59:13.611Z,100160.91
2023-01-11T09:01:40.082Z,100160.44
2023-01-11T09:04:15.755Z,100159.75
2023-01-11T09:06:49.759Z,100169.97
2023-01-11T09:09:16.263Z,100170.47
2023-01-11T09:11:54.739Z,100174.38
2023-01-11T09:14:22.247Z,100176.72
2023-01-11T09:16:48.853Z,100183.50
2023-01-11T09:19:15.382Z,100180.75
2023-01-11T09:21:41.806Z,100176.03
2023-01-11T09:24:08.336Z,100184.81
2023-01-11T09:26:35.666Z,100189.56
2023-01-11T09:29:02.167Z,100192.59
2023-01-11T09:31:28.625Z,100191.66
2023-01-11T09:33:55.126Z,100198.84
2023-01-11T09:36:22.708Z,100207.69
2023-01-11T09:38:50.311Z,100226.53
2023-01-11T09:41:19.456Z,100240.75
2023-01-11T09:43:53.939Z,100238.81
2023-01-11T09:46:20.472Z,100239.59
2023-01-11T09:48:52.461Z,100235.41
2023-01-11T09:51:20.534Z,100250.56
2023-01-11T09:53:50.189Z,100255.56
2023-01-11T09:56:25.314Z,100255.19
2023-01-11T09:58:54.664Z,100251.47
2023-01-11T10:01:39.469Z,100237.97
2023-01-11T10:04:32.892Z,100239.59
2023-01-11T10:07:22.880Z,100249.94
2023-01-11T10:18:39.014Z,100247.25
2023-01-11T10:19:42.286Z,100264.47
2023-01-11T10:22:17.956Z,100263.50
2023-01-11T10:24:48.417Z,100263.44
2023-01-11T10:27:31.214Z,100264.00
2023-01-11T10:30:33.144Z,100263.31
2023-01-11T10:33:23.433Z,100259.38
2023-01-11T10:36:38.799Z,100259.38
2023-01-11T10:39:35.638Z,100264.25
2023-01-11T10:42:10.304Z,100267.59
2023-01-11T10:44:42.407Z,100264.38
2023-01-11T10:47:16.293Z,100266.50
2023-01-11T10:49:58.786Z,100267.06
2023-01-11T10:52:41.406Z,100279.28
2023-01-11T10:55:13.125Z,100264.81
2023-01-11T10:58:11.385Z,100266.47
2023-01-11T11:01:04.009Z,100272.78
2023-01-11T11:03:39.949Z,100270.56
2023-01-11T11:06:43.737Z,100277.72
2023-01-11T11:09:22.243Z,100280.25
2023-01-11T11:11:57.342Z,100277.88
2023-01-11T11:14:47.453Z,100283.22
2023-01-11T11:17:29.963Z,100268.38
2023-01-11T11:19:57.291Z,100258.94
2023-01-11T11:22:23.728Z,100273.63
2023-01-11T11:24:57.254Z,100280.16
2023-01-11T11:27:40.643Z,100281.41
2023-01-11T11:30:11.853Z,100289.03
2023-01-11T11:32:40.276Z,100289.94
2023-01-11T11:35:10.444Z,100289.59
2023-01-11T11:37:42.425Z,100295.91
2023-01-11T11:40:32.971Z,100288.59
2023-01-11T11:43:20.404Z,100300.72
2023-01-11T11:45:56.767Z,100293.53
2023-01-11T11:48:24.582Z,100298.81
2023-01-11T11:50:53.464Z,100295.19
2023-01-11T11:53:36.567Z,100292.47
2023-01-11T11:56:08.933Z,100305.69
2023-01-11T11:58:40.368Z,100307.59
2023-01-11T12:01:08.123Z,100309.16
2023-01-11T12:03:34.788Z,100309.97
2023-01-11T12:06:05.310Z,100301.88
2023-01-11T12:08:34.405Z,100308.50
2023-01-11T12:11:06.463Z,100302.84
2023-01-11T12:13:40.219Z,100303.38
2023-01-11T12:16:18.160Z,100304.53
2023-01-11T12:18:44.673Z,100296.22
2023-01-11T12:21:25.426Z,100302.38
2023-01-11T12:24:07.743Z,100295.09
2023-01-11T12:26:38.541Z,100302.28
2023-01-11T12:29:26.783Z,100295.06
2023-01-11T12:32:02.207Z,100297.25
2023-01-11T12:34:59.490Z,100298.16
2023-01-11T12:37:27.086Z,100289.69
2023-01-11T12:40:18.376Z,100293.84
2023-01-11T12:43:03.406Z,100295.59
2023-01-11T12:45:32.645Z,100290.59
2023-01-11T12:48:04.122Z,100293.41
2023-01-11T12:50:34.719Z,100289.34
2023-01-11T12:53:21.548Z,100282.84
2023-01-11T12:55:56.916Z,100300.91
2023-01-11T12:58:32.853Z,100296.16
2023-01-11T13:01:13.134Z,100304.84
2023-01-11T13:03:42.401Z,100308.31
2023-01-11T13:06:14.364Z,100309.78
2023-01-11T13:08:55.327Z,100307.22
2023-01-11T13:11:45.685Z,100322.47
2023-01-11T13:15:00.006Z,100317.88
2023-01-11T13:17:44.365Z,100315.28
2023-01-11T13:20:16.645Z,100311.50
2023-01-11T13:22:50.627Z,100317.03
2023-01-11T13:25:21.090Z,100321.00
2023-01-11T13:27:49.638Z,100319.41
2023-01-11T13:30:17.959Z,100320.66
2023-01-11T13:32:50.161Z,100322.47
2023-01-11T13:35:20.960Z,100335.09
2023-01-11T13:37:53.403Z,100343.88
2023-01-11T13:40:25.465Z,100336.22
2023-01-11T13:42:56.109Z,100341.75
2023-01-11T13:45:26.425Z,100347.91
2023-01-11T13:47:58.534Z,100354.19
2023-01-11T13:50:31.801Z,100355.78
2023-01-11T13:53:24.265Z,100346.56
2023-01-11T13:55:56.755Z,100349.03
2023-01-11T13:58:29.001Z,100351.03
2023-01-11T14:01:00.513Z,100350.84
2023-01-11T14:04:18.653Z,100360.03
2023-01-11T14:07:21.922Z,100366.44
2023-01-11T14:09:58.480Z,100370.00
2023-01-11T14:12:42.920Z,100373.84
2023-01-11T14:15:41.238Z,100374.94
2023-01-11T14:18:19.872Z,100385.41
2023-01-11T14:21:12.508Z,100388.78
2023-01-11T14:23:47.732Z,100399.31
2023-01-11T14:26:38.097Z,100419.53
2023-01-11T14:29:19.029Z,100400.91
2023-01-11T14:32:17.428Z,100407.88
2023-01-11T14:34:55.350Z,100409.44
2023-01-11T14:38:07.355Z,100413.28
2023-01-11T14:40:51.903Z,100407.19
2023-01-11T14:43:52.700Z,100406.09
2023-01-11T14:46:37.404Z,100404.94
2023-01-11T14:49:23.658Z,100413.72
2023-01-11T14:51:56.699Z,100400.78
2023-01-11T14:54:30.463Z,100409.66
2023-01-11T14:56:58.007Z,100404.03
2023-01-11T14:59:30.450Z,100415.94
2023-01-11T15:02:02.981Z,100422.22
2023-01-11T15:04:55.756Z,100429.88
2023-01-11T15:07:37.128Z,100426.06
2023-01-11T15:10:29.960Z,100425.94
2023-01-11T15:12:57.121Z,100422.25
2023-01-11T15:15:47.616Z,100429.00
2023-01-11T15:18:23.087Z,100423.47
2023-01-11T15:21:03.973Z,100421.91
2023-01-11T15:23:34.918Z,100420.34
2023-01-11T15:26:04.256Z,100419.09
2023-01-11T15:28:35.345Z,100413.94
2023-01-11T15:31:05.434Z,100415.72
2023-01-11T15:33:48.757Z,100411.91
2023-01-11T15:36:15.336Z,100417.28
2023-01-11T15:38:49.328Z,100419.63
2023-01-11T15:41:39.644Z,100413.25
2023-01-11T15:44:20.296Z,100419.63
2023-01-11T15:46:55.017Z,100432.41
2023-01-11T15:49:44.260Z,100425.06
2023-01-11T15:52:40.931Z,100434.72
2023-01-11T15:55:25.832Z,100441.09
2023-01-11T15:58:13.368Z,100433.72
2023-01-11T16:01:08.036Z,100444.22
2023-01-11T16:04:00.825Z,100434.22
2023-01-11T16:06:32.689Z,100438.69
2023-01-11T16:09:06.544Z,100439.41
2023-01-11T16:11:49.184Z,100444.44
2023-01-11T16:14:53.140Z,100445.88
2023-01-11T16:17:22.026Z,100445.25
2023-01-11T16:19:52.920Z,100447.06
2023-01-11T16:22:25.078Z,100452.75
2023-01-11T16:24:58.268Z,100449.72
2023-01-11T16:27:27.625Z,100458.44
2023-01-11T16:29:54.457Z,100460.38
2023-01-11T16:32:26.759Z,100456.78
2023-01-11T16:34:53.928Z,100457.44
2023-01-11T16:37:42.525Z,100450.13
2023-01-11T16:40:15.127Z,100454.38
2023-01-11T16:42:52.359Z,100467.91
2023-01-11T16:45:21.282Z,100467.56
2023-01-11T16:48:12.333Z,100478.81
2023-01-11T16:50:40.047Z,100484.75
2023-01-11T16:53:12.093Z,100485.28
2023-01-11T16:55:40.498Z,100482.53
2023-01-11T16:58:19.055Z,100477.63
2023-01-11T17:01:40.956Z,100484.22
2023-01-11T17:04:34.700Z,100487.53
2023-01-11T17:07:20.450Z,100487.13
2023-01-11T17:09:46.854Z,100475.91
2023-01-11T17:12:22.781Z,100484.53
2023-01-11T17:15:26.735Z,100481.63
2023-01-11T17:17:53.338Z,100482.00
2023-01-11T17:20:21.910Z,100481.97
2023-01-11T17:22:53.764Z,100479.03
2023-01-11T17:25:23.518Z,100479.75
2023-01-11T17:27:55.606Z,100472.81
2023-01-11T17:30:23.983Z,100473.16
2023-01-11T17:32:55.633Z,100484.78
2023-01-11T17:35:25.890Z,100487.13
2023-01-11T17:37:55.286Z,100486.06
2023-01-11T17:40:35.306Z,100495.22
2023-01-11T17:43:24.763Z,100491.19
2023-01-11T17:45:56.553Z,100499.72
2023-01-11T17:48:22.961Z,100509.56
2023-01-11T17:50:54.292Z,100513.53
2023-01-11T17:53:29.296Z,100514.41
2023-01-11T17:56:00.837Z,100508.91
2023-01-11T17:58:28.809Z,100507.22
2023-01-11T18:01:04.567Z,100505.94
2023-01-11T18:03:38.881Z,100504.41
2023-01-11T18:06:12.787Z,100505.63
2023-01-11T18:08:39.292Z,100510.31
2023-01-11T18:11:05.954Z,100494.84
2023-01-11T18:13:36.626Z,100501.44
2023-01-11T18:16:03.697Z,100509.81
2023-01-11T18:18:44.989Z,100518.69
2023-01-11T18:21:26.537Z,100514.41
2023-01-11T18:24:11.221Z,100506.69
2023-01-11T18:26:39.283Z,100510.75
2023-01-11T18:29:05.918Z,100494.41
2023-01-11T18:31:32.668Z,100500.13
2023-01-11T18:34:04.986Z,100503.00
2023-01-11T18:36:31.336Z,100515.25
2023-01-11T18:38:57.721Z,100507.09
2023-01-11T18:41:44.629Z,100512.78
2023-01-11T18:44:11.907Z,100513.03
2023-01-11T18:46:38.298Z,100491.63
2023-01-11T18:49:04.667Z,100501.34
2023-01-11T18:51:36.152Z,100500.13
2023-01-11T18:54:02.521Z,100494.63
2023-01-11T18:56:29.021Z,100506.13
2023-01-11T18:58:55.416Z,100497.38
2023-01-11T19:01:21.911Z,100509.38
2023-01-11T19:03:48.873Z,100489.81
2023-01-11T19:06:19.174Z,100490.88
2023-01-11T19:08:45.556Z,100485.59
2023-01-11T19:11:13.837Z,100484.75
2023-01-11T19:13:40.271Z,100485.38
2023-01-11T19:16:07.308Z,100479.94
2023-01-11T19:18:35.315Z,100480.75
2023-01-11T19:21:05.199Z,100478.94
2023-01-11T19:23:32.076Z,100473.28
2023-01-11T19:26:01.188Z,100479.72
2023-01-11T19:28:28.299Z,100471.31
2023-01-11T19:30:54.751Z,100479.81
2023-01-11T19:33:21.250Z,100461.63
2023-01-11T19:35:49.241Z,100469.78
2023-01-11T19:38:18.299Z,100464.78
2023-01-11T19:40:45.426Z,100464.63
2023-01-11T19:43:11.825Z,100468.41
2023-01-11T19:45:38.207Z,100456.22
2023-01-11T19:48:05.275Z,100451.59
2023-01-11T19:50:31.710Z,100452.34
2023-01-11T19:52:58.080Z,100456.19
2023-01-11T19:55:24.748Z,100462.41
2023-01-11T19:57:51.186Z,100445.66
2023-01-11T20:00:20.321Z,100431.25
2023-01-11T20:02:46.750Z,100448.47
2023-01-11T20:05:13.618Z,100446.72
2023-01-11T20:07:40.035Z,100436.53
2023-01-11T20:10:06.521Z,100450.28
2023-01-11T20:12:32.908Z,100437.91
2023-01-11T20:15:01.310Z,100419.13
2023-01-11T20:17:28.258Z,100426.34
2023-01-11T20:19:55.037Z,100417.72
2023-01-11T20:22:25.537Z,100411.75
2023-01-11T20:24:52.111Z,100436.63
2023-01-11T20:27:18.516Z,100424.75
2023-01-11T20:29:45.642Z,100429.19
2023-01-11T20:32:35.099Z,100417.84
2023-01-11T20:34:58.448Z,100437.19
2023-01-11T20:37:24.811Z,100418.78
2023-01-11T20:39:51.222Z,100409.13
2023-01-11T20:42:17.586Z,100402.81
2023-01-11T20:44:43.999Z,100386.63
2023-01-11T20:47:10.409Z,100397.44
2023-01-11T20:49:36.829Z,100381.31
2023-01-11T20:52:03.660Z,100375.91
2023-01-11T20:54:30.056Z,100376.56
2023-01-11T20:57:01.900Z,100364.25
2023-01-11T20:59:28.296Z,100371.81
2023-01-11T21:01:54.720Z,100357.34
2023-01-11T21:04:21.088Z,100370.25
2023-01-11T21:06:48.306Z,100366.22
2023-01-11T21:09:16.796Z,100376.88
2023-01-11T21:11:44.095Z,100370.84
2023-01-11T21:14:11.998Z,100385.16
2023-01-11T21:16:42.714Z,100380.50
2023-01-11T21:19:11.615Z,100391.38
2023-01-11T21:21:37.967Z,100386.13
2023-01-11T21:24:05.053Z,100386.00
2023-01-11T21:26:32.261Z,100383.00
2023-01-11T21:29:00.545Z,100393.19
2023-01-11T21:31:28.534Z,100399.31
2023-01-11T21:33:55.112Z,100390.81
2023-01-11T21:36:23.884Z,100385.53
2023-01-11T21:38:50.608Z,100395.19
2023-01-11T21:41:41.942Z,100364.06
2023-01-11T21:44:09.175Z,100351.72
2023-01-11T21:46:35.724Z,100348.16
2023-01-11T21:49:02.386Z,100370.84
2023-01-11T21:51:29.896Z,100344.06
2023-01-11T21:53:57.172Z,100345.13
2023-01-11T21:56:23.723Z,100329.19
2023-01-11T21:58:50.572Z,100335.50
2023-01-11T22:01:19.383Z,100327.38
2023-01-11T22:03:46.032Z,100316.59
2023-01-11T22:06:12.489Z,100328.44
2023-01-11T22:08:39.922Z,100327.31
2023-01-11T22:11:06.729Z,100318.56
2023-01-11T22:13:34.697Z,100303.91
2023-01-11T22:16:07.054Z,100296.84
2023-01-11T22:18:34.096Z,100314.72
2023-01-11T22:21:08.705Z,100327.09
2023-01-11T22:23:35.332Z,100315.91
2023-01-11T22:26:13.059Z,100298.16
2023-01-11T22:28:59.168Z,100304.88
2023-01-11T22:31:27.344Z,100304.47
2023-01-11T22:33:54.404Z,100298.56
2023-01-11T22:36:21.861Z,100317.34
2023-01-11T22:38:48.221Z,100311.56
2023-01-11T22:41:15.168Z,100330.50
2023-01-11T22:43:42.960Z,100326.59
2023-01-11T22:46:13.089Z,100336.38
2023-01-11T22:48:39.559Z,100334.41
2023-01-11T22:51:06.827Z,100329.78
2023-01-11T22:53:40.912Z,100303.97
2023-01-11T22:56:08.458Z,100315.53
2023-01-11T22:58:35.970Z,100310.63
2023-01-11T23:01:16.001Z,100322.31
2023-01-11T23:03:42.809Z,100327.84
2023-01-11T23:06:09.862Z,100327.31
2023-01-11T23:08:43.727Z,100319.50
2023-01-11T23:11:13.824Z,100319.28
2023-01-11T23:13:54.749Z,100329.81
2023-01-11T23:16:24.308Z,100350.00
2023-01-11T23:18:50.673Z,100331.97
2023-01-11T23:21:17.092Z,100331.84
2023-01-11T23:23:43.606Z,100346.09
2023-01-11T23:26:12.028Z,100351.78
2023-01-11T23:28:39.059Z,100348.38
2023-01-11T23:31:15.832Z,100358.28
2023-01-11T23:33:49.969Z,100344.81
2023-01-11T23:36:18.488Z,100351.38
2023-01-11T23:38:45.677Z,100360.41
2023-01-11T23:41:32.261Z,100353.59
2023-01-11T23:43:58.622Z,100354.25
2023-01-11T23:46:43.821Z,100356.31
2023-01-11T23:49:10.974Z,100345.91
2023-01-11T23:51:37.973Z,100347.81
2023-01-11T23:54:05.531Z,100351.66
2023-01-11T23:56:33.070Z,100360.16
2023-01-11T23:58:59.901Z,100357.47
